Indianola, WA (98342)

10:42 PM PST on February 08, 2016 (GMT -0800)
Miller Bay Estates Bridge | | Change Station
CLOSE
Current Station
Personal Weather Station
Location: Poulsbo, WA
Elevation: 250 ft
Nearby Weather Stations

Elev 250 ft 47.76 °N, 122.55 °W | Updated 24 minutes ago

Clear
Clear
45.0 °F
Feels Like 45 °F
N
2.7
Wind Variable Wind from SW

Today
High -- | Low -- °F
--% Chance of Precip.
Yesterday
High -- | Low -- °F
Precip. -- in
Pressure 30.32 in
Visibility 7.0 miles
Clouds Clear
Windchill 45 °F
Dew Point 45 °F
Humidity 99%
Rainfall 0.00 in
Snow Depth Not available.
7:27 AM 5:21 PM
New Moon, 1% visible
METAR KPAE 090553Z AUTO 36005KT 7SM CLR 07/05 A3031 RMK AO2 SLP267 T00670050 10111 20067 56013
Pressure 30.32 in
Visibility 7.0 miles
Clouds Clear
Windchill 45 °F
Dew Point 45 °F
Humidity 99%
Rainfall 0.00 in
Snow Depth Not available.
7:27 AM 5:21 PM
New Moon, 1% visible
METAR KPAE 090553Z AUTO 36005KT 7SM CLR 07/05 A3031 RMK AO2 SLP267 T00670050 10111 20067 56013

10-Day Weather Forecast

Almanac

Astronomy

Feb. 08, 2016 Rise Set
Actual Time
Civil Twilight
Nautical Twilight
Astronomical Twilight
Moon
Length of Visible Light
Length of Day
Tomorrow will be .
, % of the Moon is Illuminated

Today's Extremes

State Highs State Lows

Community

WunderPhotos

Upload Photos

1,891,571 photos uploaded!

WunderBlog® & News

Nearby

Air Quality

  Air Quality AQ Index Pollutant
Not available.

Snow Depth

Station Depth Elevation

Earthquake Activity

City Distance Mag. Time & Date
Minimum magnitude displayed is 2.5.

Coastal Water Temperatures

Place Temperature

Stations

Nearby Weather Stations

Station Location Temp. Windchill Dew Point Humidity Wind Precip. Elev Updated Type
                   

Watches & Warnings

There are currently no watches in effect.